createdAt,value
2019-02-08T00:01:29.361Z,57.60
2019-02-08T00:04:33.122Z,57.63
2019-02-08T00:07:36.870Z,57.60
2019-02-08T00:10:40.601Z,57.80
2019-02-08T00:13:44.338Z,56.47
2019-02-08T00:16:48.088Z,56.53
2019-02-08T00:19:51.809Z,56.47
2019-02-08T00:22:55.507Z,55.97
2019-02-08T00:26:02.514Z,56.60
2019-02-08T00:29:06.718Z,56.63
2019-02-08T00:32:10.466Z,56.03
2019-02-08T00:35:14.237Z,55.83
2019-02-08T00:38:17.971Z,55.50
2019-02-08T00:41:21.734Z,57.67
2019-02-08T00:44:25.400Z,57.00
2019-02-08T00:47:29.211Z,58.83
2019-02-08T00:50:32.975Z,61.67
2019-02-08T00:53:36.714Z,62.80
2019-02-08T00:56:40.453Z,61.23
2019-02-08T00:59:44.511Z,65.13
2019-02-08T01:02:49.230Z,62.37
2019-02-08T01:05:52.993Z,62.17
2019-02-08T01:08:59.031Z,66.70
2019-02-08T01:12:03.247Z,65.70
2019-02-08T01:15:08.502Z,66.17
2019-02-08T01:18:12.964Z,63.77
2019-02-08T01:21:17.139Z,63.93
2019-02-08T01:24:21.333Z,66.83
2019-02-08T01:27:25.428Z,69.67
2019-02-08T01:30:30.347Z,66.90
2019-02-08T01:33:34.465Z,67.57
2019-02-08T01:36:38.583Z,67.37
2019-02-08T01:39:42.746Z,65.33
2019-02-08T01:42:46.887Z,63.03
2019-02-08T01:45:51.049Z,63.57
2019-02-08T01:48:55.292Z,63.57
2019-02-08T01:51:59.384Z,61.73
2019-02-08T01:55:03.528Z,64.20
2019-02-08T01:58:07.704Z,61.10
2019-02-08T02:01:11.871Z,61.30
2019-02-08T02:04:15.964Z,61.33
2019-02-08T02:07:20.080Z,59.83
2019-02-08T02:10:35.234Z,56.40
2019-02-08T02:13:39.351Z,56.33
2019-02-08T02:16:43.448Z,59.97
2019-02-08T02:19:47.692Z,56.63
2019-02-08T02:22:51.776Z,56.57
2019-02-08T02:25:55.964Z,56.73
2019-02-08T02:29:00.063Z,55.30
2019-02-08T02:32:04.186Z,56.13
2019-02-08T02:35:08.943Z,58.17
2019-02-08T02:38:13.153Z,58.57
2019-02-08T02:41:17.318Z,59.33
2019-02-08T02:44:21.527Z,59.40
2019-02-08T02:47:25.616Z,57.83
2019-02-08T02:50:29.739Z,60.57
2019-02-08T02:53:33.824Z,59.47
2019-02-08T02:56:37.952Z,63.13
2019-02-08T02:59:42.122Z,62.27
2019-02-08T03:02:46.385Z,61.53
2019-02-08T03:05:50.572Z,64.23
2019-02-08T03:08:54.687Z,66.00
2019-02-08T03:11:58.856Z,68.03
2019-02-08T03:15:02.976Z,70.03
2019-02-08T03:18:07.098Z,69.60
2019-02-08T03:21:11.213Z,66.63
2019-02-08T03:24:15.296Z,67.90
2019-02-08T03:27:19.436Z,68.57
2019-02-08T03:30:31.982Z,67.70
2019-02-08T03:33:36.156Z,68.57
2019-02-08T03:36:40.340Z,71.87
2019-02-08T03:39:44.535Z,69.57
2019-02-08T03:42:48.628Z,68.93
2019-02-08T03:45:53.915Z,70.80
2019-02-08T03:48:58.101Z,69.73
2019-02-08T03:52:02.217Z,71.20
2019-02-08T03:55:06.335Z,70.00
2019-02-08T03:58:11.813Z,68.33
2019-02-08T04:01:15.997Z,69.20
2019-02-08T04:04:20.252Z,64.43
2019-02-08T04:07:24.419Z,66.60
2019-02-08T04:10:28.610Z,66.80
2019-02-08T04:13:32.777Z,68.47
2019-02-08T04:16:36.899Z,66.97
2019-02-08T04:19:40.994Z,67.43
2019-02-08T04:22:45.107Z,64.67
2019-02-08T04:25:49.139Z,63.33
2019-02-08T04:28:53.339Z,65.93
2019-02-08T04:31:57.677Z,64.73
2019-02-08T04:35:01.884Z,64.83
2019-02-08T04:38:05.991Z,64.47
2019-02-08T04:41:10.108Z,62.50
2019-02-08T04:44:14.231Z,63.53
2019-02-08T04:47:18.442Z,64.97
2019-02-08T04:50:23.191Z,63.77
2019-02-08T04:53:27.325Z,64.53
2019-02-08T04:56:31.496Z,63.43
2019-02-08T04:59:35.632Z,63.27
2019-02-08T05:02:39.718Z,63.47
2019-02-08T05:05:43.836Z,63.10
2019-02-08T05:08:47.951Z,65.20
2019-02-08T05:11:52.155Z,64.50
2019-02-08T05:14:56.302Z,67.20
2019-02-08T05:18:00.443Z,64.17
2019-02-08T05:21:04.604Z,64.70
2019-02-08T05:24:08.809Z,65.77
2019-02-08T05:27:12.955Z,65.80
2019-02-08T05:30:22.556Z,62.77
2019-02-08T05:33:26.875Z,63.53
2019-02-08T05:36:31.069Z,64.97
2019-02-08T05:39:35.152Z,64.80
2019-02-08T05:42:39.264Z,62.73
2019-02-08T05:45:43.453Z,65.27
2019-02-08T05:48:47.688Z,67.43
2019-02-08T05:51:51.780Z,66.13
2019-02-08T05:54:55.921Z,65.57
2019-02-08T05:58:00.121Z,63.93
2019-02-08T06:01:04.330Z,65.43
2019-02-08T06:04:08.506Z,65.80
2019-02-08T06:07:12.703Z,66.63
2019-02-08T06:10:16.803Z,66.93
2019-02-08T06:13:20.929Z,65.70
2019-02-08T06:16:25.025Z,64.47
2019-02-08T06:19:29.226Z,65.87
2019-02-08T06:22:33.547Z,70.77
2019-02-08T06:25:37.767Z,67.90
2019-02-08T06:28:41.923Z,70.10
2019-02-08T06:31:46.137Z,67.80
2019-02-08T06:34:50.313Z,69.23
2019-02-08T06:37:54.542Z,67.53
2019-02-08T06:40:58.714Z,69.67
2019-02-08T06:44:02.844Z,67.23
2019-02-08T06:47:07.017Z,68.37
2019-02-08T06:50:12.472Z,68.43
2019-02-08T06:53:16.618Z,65.00
2019-02-08T06:56:38.560Z,67.73
2019-02-08T06:59:51.996Z,68.97
2019-02-08T07:03:19.874Z,67.23
2019-02-08T07:06:41.503Z,68.17
2019-02-08T07:10:05.636Z,67.57
2019-02-08T07:13:29.671Z,70.67
2019-02-08T07:16:51.312Z,66.97
2019-02-08T07:20:09.992Z,71.17
2019-02-08T07:23:31.815Z,70.60
2019-02-08T07:26:53.767Z,71.03
2019-02-08T07:30:07.629Z,67.17
2019-02-08T07:33:20.009Z,69.67
2019-02-08T07:36:40.917Z,70.60
2019-02-08T07:40:12.827Z,65.13
2019-02-08T07:43:22.063Z,63.83
2019-02-08T07:46:45.461Z,66.10
2019-02-08T07:49:56.787Z,65.40
2019-02-08T07:53:26.096Z,62.43
2019-02-08T07:57:07.420Z,65.70
2019-02-08T08:00:32.206Z,39.33
2019-02-08T08:04:01.000Z,40.53
2019-02-08T08:07:21.516Z,43.17
2019-02-08T08:10:33.836Z,44.70
2019-02-08T08:13:49.388Z,45.77
2019-02-08T08:17:27.910Z,44.03
2019-02-08T08:20:43.962Z,45.27
2019-02-08T08:24:13.025Z,45.23
2019-02-08T08:27:34.625Z,47.10
2019-02-08T08:30:50.753Z,44.50
2019-02-08T08:34:04.769Z,45.17
2019-02-08T08:38:03.522Z,42.70
2019-02-08T08:41:23.990Z,43.83
2019-02-08T08:45:03.870Z,43.20
2019-02-08T08:48:28.506Z,43.83
2019-02-08T08:52:38.431Z,45.40
2019-02-08T08:56:16.081Z,43.93
2019-02-08T08:59:29.754Z,44.03
2019-02-08T09:02:43.723Z,44.97
2019-02-08T09:06:10.180Z,43.43
2019-02-08T09:09:52.952Z,43.00
2019-02-08T09:13:33.264Z,42.97
2019-02-08T09:17:33.932Z,42.20
2019-02-08T09:21:20.966Z,39.83
2019-02-08T09:25:13.985Z,38.70
2019-02-08T09:28:49.267Z,31.73
2019-02-08T09:32:39.662Z,31.80
2019-02-08T09:36:20.761Z,30.53
2019-02-08T09:40:33.548Z,29.70
2019-02-08T09:44:20.858Z,30.00
2019-02-08T09:47:55.047Z,28.93
2019-02-08T09:51:23.833Z,28.30
2019-02-08T09:54:59.442Z,28.70
2019-02-08T09:59:02.956Z,29.10
2019-02-08T10:02:42.222Z,26.93
2019-02-08T10:06:26.801Z,27.57
2019-02-08T10:10:07.044Z,27.10
2019-02-08T10:13:43.077Z,28.27
2019-02-08T10:17:37.488Z,26.07
2019-02-08T10:21:12.416Z,26.23
2019-02-08T10:24:53.444Z,25.40
2019-02-08T10:28:50.848Z,25.70
2019-02-08T10:33:00.838Z,24.43
2019-02-08T10:36:48.238Z,23.73
2019-02-08T10:40:48.599Z,26.20
2019-02-08T10:44:35.700Z,26.23
2019-02-08T10:48:30.146Z,24.00
2019-02-08T10:52:11.220Z,23.90
2019-02-08T10:55:50.963Z,23.73
2019-02-08T10:59:35.104Z,23.77
2019-02-08T11:03:16.256Z,22.40
2019-02-08T11:06:57.359Z,23.50
2019-02-08T11:10:41.175Z,24.37
2019-02-08T11:14:20.161Z,22.47
2019-02-08T11:18:10.421Z,23.03
2019-02-08T11:21:14.628Z,22.97
2019-02-08T11:24:20.656Z,23.30
2019-02-08T11:27:24.868Z,23.27
2019-02-08T11:30:29.050Z,24.33
2019-02-08T11:33:33.269Z,24.10
2019-02-08T11:36:37.452Z,24.77
2019-02-08T11:39:41.771Z,24.93
2019-02-08T11:42:45.869Z,22.83
2019-02-08T11:45:50.064Z,24.70
2019-02-08T11:48:54.215Z,23.47
2019-02-08T11:51:58.364Z,24.93
2019-02-08T11:55:02.464Z,25.17
2019-02-08T11:58:07.398Z,25.90
2019-02-08T12:01:11.563Z,26.13
2019-02-08T12:04:15.723Z,24.77
2019-02-08T12:07:19.889Z,25.87
2019-02-08T12:10:24.265Z,25.50
2019-02-08T12:13:28.552Z,25.50
2019-02-08T12:16:32.713Z,25.00
2019-02-08T12:19:36.812Z,25.73
2019-02-08T12:22:41.149Z,25.17
2019-02-08T12:25:45.322Z,26.97
2019-02-08T12:28:49.744Z,25.83
2019-02-08T12:31:54.039Z,26.50
2019-02-08T12:34:58.255Z,26.10
2019-02-08T12:38:02.367Z,26.37
2019-02-08T12:41:09.819Z,25.67
2019-02-08T12:44:13.947Z,25.27
2019-02-08T12:47:19.926Z,25.93
2019-02-08T12:50:24.023Z,25.13
2019-02-08T12:53:28.236Z,23.27
2019-02-08T12:56:32.339Z,22.97
2019-02-08T12:59:36.527Z,22.67
2019-02-08T13:02:40.655Z,22.47
2019-02-08T13:05:44.898Z,23.97
2019-02-08T13:08:49.068Z,25.03
2019-02-08T13:11:53.301Z,23.60
2019-02-08T13:14:57.470Z,23.63
2019-02-08T13:18:01.673Z,23.47
2019-02-08T13:21:05.756Z,21.80
2019-02-08T13:24:09.890Z,23.07
2019-02-08T13:27:14.060Z,21.33
2019-02-08T13:30:23.712Z,22.67
2019-02-08T13:33:31.435Z,21.20
2019-02-08T13:36:35.625Z,23.27
2019-02-08T13:39:39.792Z,23.90
2019-02-08T13:42:44.048Z,24.33
2019-02-08T13:45:48.270Z,24.27
2019-02-08T13:48:52.449Z,22.50
2019-02-08T13:51:56.550Z,23.43
2019-02-08T13:55:00.761Z,23.30
2019-02-08T13:58:06.147Z,25.67
2019-02-08T14:01:10.477Z,26.37
2019-02-08T14:04:14.575Z,22.03
2019-02-08T14:07:18.689Z,22.33
2019-02-08T14:10:22.858Z,24.80
2019-02-08T14:13:27.053Z,25.10
2019-02-08T14:16:31.172Z,22.57
2019-02-08T14:19:35.344Z,22.73
2019-02-08T14:22:39.532Z,22.13
2019-02-08T14:25:43.660Z,24.83
2019-02-08T14:28:47.852Z,24.73
2019-02-08T14:31:53.076Z,24.77
2019-02-08T14:34:57.328Z,23.30
2019-02-08T14:38:01.948Z,22.57
2019-02-08T14:41:06.173Z,21.60
2019-02-08T14:44:10.737Z,21.73
2019-02-08T14:47:14.905Z,22.27
2019-02-08T14:50:21.421Z,21.30
2019-02-08T14:53:25.654Z,22.40
2019-02-08T14:56:30.892Z,21.10
2019-02-08T14:59:35.280Z,22.97
2019-02-08T15:02:39.862Z,22.87
2019-02-08T15:05:44.152Z,23.10
2019-02-08T15:08:48.488Z,21.80
2019-02-08T15:11:52.721Z,22.60
2019-02-08T15:14:57.134Z,21.07
2019-02-08T15:18:01.303Z,21.00
2019-02-08T15:21:05.564Z,20.83
2019-02-08T15:24:09.648Z,20.93
2019-02-08T15:27:13.775Z,22.80
2019-02-08T15:30:20.658Z,26.63
2019-02-08T15:33:24.809Z,26.17
2019-02-08T15:36:29.020Z,24.43
2019-02-08T15:39:33.154Z,24.63
2019-02-08T15:42:37.269Z,24.60
2019-02-08T15:45:43.081Z,23.57
2019-02-08T15:48:47.321Z,25.90
2019-02-08T15:51:51.592Z,27.03
2019-02-08T15:54:56.063Z,24.90
2019-02-08T15:58:00.300Z,25.43
2019-02-08T16:01:07.076Z,25.10
2019-02-08T16:04:11.361Z,26.63
2019-02-08T16:07:15.561Z,24.67
2019-02-08T16:10:19.705Z,28.87
2019-02-08T16:13:23.926Z,29.07
2019-02-08T16:16:28.627Z,29.07
2019-02-08T16:19:32.835Z,33.03
2019-02-08T16:22:37.401Z,35.47
2019-02-08T16:25:41.582Z,39.53
2019-02-08T16:28:45.841Z,41.00
2019-02-08T16:31:50.196Z,43.57
2019-02-08T16:34:54.427Z,45.57
2019-02-08T16:37:58.644Z,50.93
2019-02-08T16:41:02.852Z,49.37
2019-02-08T16:44:07.028Z,57.37
2019-02-08T16:47:11.533Z,56.03
2019-02-08T16:50:18.173Z,54.00
2019-02-08T16:53:22.316Z,53.13
2019-02-08T16:56:26.508Z,54.00
2019-02-08T16:59:30.644Z,53.43
2019-02-08T17:02:34.799Z,59.07
2019-02-08T17:05:38.933Z,62.87
2019-02-08T17:08:43.151Z,65.80
2019-02-08T17:11:47.652Z,73.57
2019-02-08T17:14:53.347Z,77.20
2019-02-08T17:17:57.575Z,78.73
2019-02-08T17:21:01.708Z,80.17
2019-02-08T17:24:05.933Z,83.33
2019-02-08T17:27:11.252Z,87.23
2019-02-08T17:30:16.471Z,96.03
2019-02-08T17:33:20.700Z,98.33
2019-02-08T17:36:25.043Z,97.03
2019-02-08T17:39:29.194Z,102.33
2019-02-08T17:42:33.415Z,97.07
2019-02-08T17:45:37.588Z,97.80
2019-02-08T17:48:41.947Z,97.93
2019-02-08T17:51:46.133Z,95.87
2019-02-08T17:54:50.434Z,94.77
2019-02-08T17:57:54.793Z,91.67
2019-02-08T18:01:01.285Z,91.63
2019-02-08T18:04:05.445Z,92.43
2019-02-08T18:07:09.683Z,91.23
2019-02-08T18:10:17.661Z,91.87
2019-02-08T18:13:21.813Z,86.03
2019-02-08T18:16:26.053Z,85.40
2019-02-08T18:19:30.315Z,86.13
2019-02-08T18:22:34.448Z,81.60
2019-02-08T18:25:38.596Z,83.40
2019-02-08T18:28:42.765Z,82.97
2019-02-08T18:31:47.090Z,80.70
2019-02-08T18:34:51.375Z,76.70
2019-02-08T18:37:55.608Z,76.80
2019-02-08T18:40:59.781Z,74.37
2019-02-08T18:44:04.009Z,73.80
2019-02-08T18:47:08.850Z,75.00
2019-02-08T18:50:16.657Z,73.60
2019-02-08T18:53:21.001Z,76.07
2019-02-08T18:56:25.368Z,75.20
2019-02-08T18:59:30.917Z,78.27
2019-02-08T19:02:35.481Z,83.00
2019-02-08T19:05:42.415Z,82.07
2019-02-08T19:08:46.922Z,86.03
2019-02-08T19:11:51.273Z,86.77
2019-02-08T19:14:55.545Z,85.07
2019-02-08T19:18:02.180Z,91.17
2019-02-08T19:21:06.396Z,89.97
2019-02-08T19:24:10.992Z,88.60
2019-02-08T19:27:15.215Z,88.80
2019-02-08T19:30:21.729Z,90.57
2019-02-08T19:33:25.954Z,87.90
2019-02-08T19:36:30.200Z,88.57
2019-02-08T19:39:34.554Z,86.47
2019-02-08T19:42:38.768Z,85.47
2019-02-08T19:45:43.036Z,89.47
2019-02-08T19:48:47.228Z,87.43
2019-02-08T19:51:51.501Z,89.97
2019-02-08T19:54:55.747Z,87.80
2019-02-08T19:57:59.959Z,88.47
2019-02-08T20:01:04.140Z,89.10
2019-02-08T20:04:08.484Z,94.73
2019-02-08T20:07:12.942Z,96.83
2019-02-08T20:10:22.273Z,97.13
2019-02-08T20:13:27.283Z,99.93
2019-02-08T20:16:31.542Z,100.97
2019-02-08T20:19:35.850Z,109.10
2019-02-08T20:22:40.097Z,116.17
2019-02-08T20:25:44.393Z,117.00
2019-02-08T20:28:48.628Z,115.47
2019-02-08T20:31:52.810Z,115.43
2019-02-08T20:34:57.175Z,113.57
2019-02-08T20:38:01.516Z,112.53
2019-02-08T20:41:05.764Z,110.10
2019-02-08T20:44:09.993Z,106.20
2019-02-08T20:47:14.370Z,105.83
2019-02-08T20:50:18.841Z,103.40
2019-02-08T20:53:23.132Z,101.93
2019-02-08T20:56:27.370Z,104.60
2019-02-08T20:59:32.297Z,109.00
2019-02-08T21:02:37.187Z,109.60
2019-02-08T21:05:42.596Z,109.77
2019-02-08T21:08:46.803Z,109.57
2019-02-08T21:11:51.459Z,108.00
2019-02-08T21:14:55.665Z,116.33
2019-02-08T21:17:59.907Z,115.97
2019-02-08T21:21:05.394Z,115.70
2019-02-08T21:24:09.660Z,115.37
2019-02-08T21:27:14.368Z,116.13
2019-02-08T21:30:18.592Z,113.63
2019-02-08T21:33:22.765Z,116.10
2019-02-08T21:36:27.029Z,116.80
2019-02-08T21:39:31.378Z,120.80
2019-02-08T21:42:35.709Z,122.60
2019-02-08T21:45:41.636Z,123.97
2019-02-08T21:48:46.478Z,119.07
2019-02-08T21:51:50.671Z,121.00
2019-02-08T21:54:54.952Z,126.27
2019-02-08T21:57:59.252Z,121.87
2019-02-08T22:01:03.424Z,123.47
2019-02-08T22:04:07.548Z,118.17
2019-02-08T22:07:11.718Z,111.03
2019-02-08T22:10:15.999Z,110.63
2019-02-08T22:13:20.453Z,109.93
2019-02-08T22:16:25.165Z,108.73
2019-02-08T22:19:29.386Z,111.80
2019-02-08T22:22:33.820Z,115.43
2019-02-08T22:25:38.246Z,119.47
2019-02-08T22:28:42.353Z,117.90
2019-02-08T22:31:46.803Z,120.57
2019-02-08T22:34:50.916Z,119.57
2019-02-08T22:37:55.082Z,120.07
2019-02-08T22:40:59.598Z,122.33
2019-02-08T22:44:04.115Z,125.77
2019-02-08T22:47:08.278Z,125.73
2019-02-08T22:50:13.053Z,127.37
2019-02-08T22:53:17.194Z,124.73
2019-02-08T22:56:21.528Z,119.57
2019-02-08T22:59:25.701Z,120.77
2019-02-08T23:02:29.952Z,120.03
2019-02-08T23:05:34.057Z,124.77
2019-02-08T23:08:38.216Z,123.43
2019-02-08T23:11:42.394Z,119.43
2019-02-08T23:14:46.532Z,120.07
2019-02-08T23:17:50.659Z,120.67
2019-02-08T23:20:54.911Z,117.27
2019-02-08T23:23:59.200Z,120.53
2019-02-08T23:27:04.036Z,118.77
2019-02-08T23:30:09.239Z,119.00
2019-02-08T23:33:13.433Z,120.20
2019-02-08T23:36:17.608Z,113.70
2019-02-08T23:39:21.873Z,112.80
2019-02-08T23:42:26.038Z,106.87
2019-02-08T23:45:30.247Z,103.37
2019-02-08T23:48:34.376Z,104.60
2019-02-08T23:51:38.513Z,101.83
2019-02-08T23:54:42.706Z,105.17
2019-02-08T23:57:46.913Z,102.47
